Time;durP1;ratioP1;P1;durP2;ratioP2;P2;SDS_P1;SDS_P2;PMS_P1;PMS_P2;Temp;Humidity;BMP_temperature;BMP_pressure;BME280_temperature;BME280_humidity;BME280_pressure;Samples;Min_cycle;Max_cycle;Signal;HPM_P1;HPM_P2
2023/04/06 00:00:31;;;;;;;;;23.60;22.00;;;;;12.75;38.66;101639.59;1979456;28;3582522;-80
2023/04/06 00:01:42;;;;;;;;;16.33;16.33;;;;;12.73;38.39;101639.63;1973711;28;3543313;-80
2023/04/06 00:02:54;;;;;;;;;19.40;19.40;;;;;12.74;38.77;101645.78;1972875;28;3566852;-80
2023/04/06 00:04:07;;;;;;;;;18.67;14.33;;;;;12.73;38.97;101641.41;1970641;28;2806605;-80
2023/04/06 00:05:22;;;;;;;;;27.29;19.14;;;;;12.72;38.96;101640.53;1942902;28;3591903;-80
2023/04/06 00:06:34;;;;;;;;;22.67;18.67;;;;;12.71;38.79;101639.69;1938066;28;3573145;-80
2023/04/06 00:07:46;;;;;;;;;22.67;15.00;;;;;12.70;39.03;101630.03;1976148;28;3567937;-80
2023/04/06 00:08:58;;;;;;;;;16.00;15.33;;;;;12.70;38.92;101632.69;1975224;28;3556483;-80
2023/04/06 00:10:09;;;;;;;;;21.00;19.00;;;;;12.70;38.92;101631.81;1961304;28;3557553;-80
2023/04/06 00:11:22;;;;;;;;;29.00;23.67;;;;;12.69;39.18;101633.56;1970929;28;3588119;-80
2023/04/06 00:12:32;;;;;;;;;21.00;20.50;;;;;12.68;38.98;101626.59;1961079;28;2831520;-80
2023/04/06 00:13:44;;;;;;;;;19.40;19.40;;;;;12.69;39.39;101627.44;1979073;28;3566920;-80
2023/04/06 00:14:55;;;;;;;;;25.00;21.00;;;;;12.68;39.31;101630.97;1964027;28;2834640;-80
2023/04/06 00:16:07;;;;;;;;;20.80;19.60;;;;;12.66;38.66;101628.41;1979071;28;3566974;-80
2023/04/06 00:17:19;;;;;;;;;16.67;16.67;;;;;12.68;38.99;101628.34;1973783;28;3560702;-80
2023/04/06 00:18:31;;;;;;;;;24.40;19.80;;;;;12.67;39.36;101629.25;1968955;28;3561696;-80
2023/04/06 00:19:42;;;;;;;;;30.33;23.33;;;;;12.66;39.57;101638.06;1965156;28;3589811;-80
2023/04/06 00:20:55;;;;;;;;;23.67;19.67;;;;;12.65;39.61;101620.50;1976016;28;3571135;-80
2023/04/06 00:22:05;;;;;;;;;25.00;24.00;;;;;12.65;39.70;101620.50;1961064;28;2848171;-80
2023/04/06 00:23:18;;;;;;;;;20.67;20.67;;;;;12.64;39.68;101624.06;1950717;28;3568952;-80
2023/04/06 00:24:29;;;;;;;;;27.40;19.80;;;;;12.64;39.63;101626.72;1981969;28;3587716;-80
2023/04/06 00:25:41;;;;;;;;;23.33;19.00;;;;;12.63;39.51;101623.19;1952448;28;3576299;-80
2023/04/06 00:26:53;;;;;;;;;27.80;21.60;;;;;12.64;39.55;101629.34;1995021;28;3571023;-80
2023/04/06 00:28:05;;;;;;;;;27.00;21.33;;;;;12.62;40.18;101625.91;1978072;28;3581471;-80
2023/04/06 00:29:17;;;;;;;;;23.67;21.00;;;;;12.60;39.90;101621.50;1967609;28;3572457;-80
2023/04/06 00:30:29;;;;;;;;;27.00;20.33;;;;;12.60;39.96;101621.50;1974634;28;3578365;-80
2023/04/06 00:31:41;;;;;;;;;27.00;22.20;;;;;12.59;39.95;101622.41;1978455;28;3579380;-80
2023/04/06 00:32:53;;;;;;;;;23.00;20.00;;;;;12.58;40.39;101618.06;1981017;28;3574639;-80
2023/04/06 00:34:06;;;;;;;;;23.00;18.67;;;;;12.59;40.23;101622.41;1976487;28;3560670;-80
2023/04/06 00:35:16;;;;;;;;;23.00;21.00;;;;;12.59;40.34;101621.56;1962399;28;2839857;-80
2023/04/06 00:36:28;;;;;;;;;24.60;20.80;;;;;12.58;40.39;101615.41;1958872;28;3583582;-80
2023/04/06 00:37:40;;;;;;;;;24.67;20.33;;;;;12.58;40.35;101618.06;1972201;28;3573182;-80
2023/04/06 00:38:52;;;;;;;;;19.67;15.67;;;;;12.58;40.15;101623.34;1967503;28;2822224;-80
2023/04/06 00:40:03;;;;;;;;;24.33;19.33;;;;;12.58;40.39;101620.69;1960568;28;3566907;-80
2023/04/06 00:41:15;;;;;;;;;24.33;21.67;;;;;12.57;40.37;101610.16;1961858;28;3572139;-80
2023/04/06 00:42:27;;;;;;;;;24.67;24.33;;;;;12.57;40.54;101613.69;1975974;28;3581475;-80
2023/04/06 00:43:39;;;;;;;;;18.60;15.80;;;;;12.57;40.42;101618.94;1987491;28;1835738;-80
2023/04/06 00:44:49;;;;;;;;;25.00;19.00;;;;;12.57;40.80;101612.81;1961775;28;2839866;-80
2023/04/06 00:46:01;;;;;;;;;27.20;23.20;;;;;12.57;40.98;101618.06;1978062;28;3584642;-80
2023/04/06 00:47:13;;;;;;;;;22.00;20.00;;;;;12.57;40.67;101611.03;1975507;28;3564825;-80
2023/04/06 00:48:25;;;;;;;;;29.67;21.67;;;;;12.57;40.75;101611.03;1975670;28;3586687;-80
2023/04/06 00:49:37;;;;;;;;;23.60;22.80;;;;;12.57;40.59;101607.53;1978742;28;3589824;-80
2023/04/06 00:50:49;;;;;;;;;23.80;20.20;;;;;12.57;40.72;101608.41;1958797;28;3577299;-80
2023/04/06 00:52:01;;;;;;;;;20.80;20.80;;;;;12.58;40.50;101609.28;1984952;28;3568991;-80
2023/04/06 00:53:13;;;;;;;;;15.33;15.00;;;;;12.57;40.65;101611.03;1970139;28;2802335;-80
2023/04/06 00:54:24;;;;;;;;;25.00;20.33;;;;;12.58;41.05;101604.88;1959979;28;3581486;-80
2023/04/06 00:55:36;;;;;;;;;21.80;20.00;;;;;12.59;40.99;101603.09;1975824;28;3568959;-80
2023/04/06 00:56:48;;;;;;;;;24.67;24.00;;;;;12.59;41.24;101601.31;1972633;28;3576271;-80
2023/04/06 00:58:00;;;;;;;;;23.00;18.33;;;;;12.60;41.21;101603.06;1981187;28;3558583;-80
2023/04/06 00:59:12;;;;;;;;;25.00;23.00;;;;;12.60;41.11;101603.06;1966873;28;3567968;-80
2023/04/06 01:00:25;;;;;;;;;22.00;17.67;;;;;12.59;41.48;101596.03;1971582;28;3566918;-80
2023/04/06 01:01:36;;;;;;;;;23.50;23.00;;;;;12.61;41.48;101593.38;1962311;28;2840879;-80
2023/04/06 01:02:47;;;;;;;;;19.20;17.20;;;;;12.61;41.41;101593.38;1961441;28;2821138;-80
2023/04/06 01:03:58;;;;;;;;;25.50;21.00;;;;;12.62;41.51;101597.72;1969500;28;2837745;-80
2023/04/06 01:05:10;;;;;;;;;26.60;24.00;;;;;12.62;41.73;101594.25;1957268;28;3579378;-80
2023/04/06 01:06:22;;;;;;;;;19.33;17.33;;;;;12.62;41.40;101597.72;1960205;28;3556512;-80
2023/04/06 01:07:34;;;;;;;;;25.00;23.60;;;;;12.61;41.70;101593.38;1978723;28;3594984;-80
2023/04/06 01:08:46;;;;;;;;;20.00;16.60;;;;;12.61;41.58;101593.38;1958578;28;3549152;-80
2023/04/06 01:09:58;;;;;;;;;25.00;20.00;;;;;12.62;41.82;101588.97;1982293;28;3572619;-80
2023/04/06 01:11:10;;;;;;;;;23.20;21.20;;;;;12.60;41.96;101587.22;1976533;28;3582544;-80
2023/04/06 01:12:21;;;;;;;;;24.00;22.80;;;;;12.62;41.99;101584.53;1957813;28;3586679;-80
2023/04/06 01:13:33;;;;;;;;;25.67;23.67;;;;;12.61;41.92;101588.09;1981767;28;3584626;-80
2023/04/06 01:14:45;;;;;;;;;28.20;23.80;;;;;12.62;41.75;101591.59;1973533;28;3599135;-80
2023/04/06 01:15:57;;;;;;;;;21.20;19.20;;;;;12.60;41.92;101579.31;1950563;28;3565811;-80
2023/04/06 01:17:09;;;;;;;;;24.40;22.60;;;;;12.60;41.92;101584.59;1980937;28;3586666;-80
2023/04/06 01:18:28;;;;;;;;;24.80;22.00;;;;;12.61;42.28;101582.81;1953829;28;3580497;-79
2023/04/06 01:19:40;;;;;;;;;33.00;25.00;;;;;12.60;42.10;101579.31;1938623;28;3598149;-80
2023/04/06 01:20:52;;;;;;;;;23.00;20.20;;;;;12.61;42.37;101577.56;1975791;28;3588762;-80
2023/04/06 01:22:05;;;;;;;;;27.80;22.20;;;;;12.60;42.68;101571.41;1952903;28;3588059;-80
2023/04/06 01:23:16;;;;;;;;;22.67;20.00;;;;;12.59;42.41;101572.31;1958904;28;3567921;-80
2023/04/06 01:24:28;;;;;;;;;22.00;18.33;;;;;12.58;42.47;101567.94;1976503;28;3566908;-80
2023/04/06 01:25:40;;;;;;;;;25.33;20.33;;;;;12.59;42.26;101568.81;1975194;28;3587860;-80
2023/04/06 01:26:52;;;;;;;;;27.20;23.40;;;;;12.58;42.39;101570.59;1978454;28;3580952;-80
2023/04/06 01:28:04;;;;;;;;;29.00;25.20;;;;;12.58;42.79;101564.44;1958291;28;3587695;-80
2023/04/06 01:29:15;;;;;;;;;25.00;22.40;;;;;12.57;42.42;101568.84;1956504;28;3572442;-80
2023/04/06 01:30:27;;;;;;;;;20.67;19.67;;;;;12.56;42.53;101564.50;1982640;28;3575584;-80
2023/04/06 01:31:40;;;;;;;;;23.00;21.40;;;;;12.56;42.50;101567.13;1977313;28;3583569;-80
2023/04/06 01:32:51;;;;;;;;;24.33;24.00;;;;;12.55;42.64;101568.03;1962978;28;3580471;-80
2023/04/06 01:34:03;;;;;;;;;26.60;21.80;;;;;12.56;42.76;101571.53;1975560;28;3593946;-80
2023/04/06 01:35:16;;;;;;;;;23.80;21.80;;;;;12.56;42.71;101568.91;1955988;28;3575264;-80
2023/04/06 01:36:27;;;;;;;;;20.00;17.33;;;;;12.55;42.93;101568.03;1958875;28;3552294;-80
2023/04/06 01:37:39;;;;;;;;;25.80;23.00;;;;;12.55;42.75;101561.88;1980619;28;3590828;-80
2023/04/06 01:38:50;;;;;;;;;25.50;22.00;;;;;12.54;42.90;101563.69;1937295;28;2835647;-80
2023/04/06 01:40:02;;;;;;;;;26.60;23.20;;;;;12.55;42.56;101569.78;1947022;28;3588778;-80
2023/04/06 01:41:14;;;;;;;;;29.00;25.00;;;;;12.54;42.82;101563.69;1934806;28;3591941;-80
2023/04/06 01:42:26;;;;;;;;;26.40;21.60;;;;;12.55;42.77;101565.38;1973348;29;3578307;-80
2023/04/06 01:43:37;;;;;;;;;15.50;14.25;;;;;12.55;43.06;101568.03;1972076;28;1827402;-80
2023/04/06 01:44:48;;;;;;;;;24.00;22.00;;;;;12.55;42.58;101565.38;1951444;28;2844007;-80
2023/04/06 01:46:00;;;;;;;;;27.00;23.60;;;;;12.57;42.92;101554.78;1960492;28;3577304;-80
2023/04/06 01:47:11;;;;;;;;;31.00;24.50;;;;;12.56;42.63;101553.06;1962221;28;2845400;-80
2023/04/06 01:48:23;;;;;;;;;27.33;25.33;;;;;12.57;42.70;101563.56;1954241;28;3581510;-80
2023/04/06 01:49:35;;;;;;;;;32.00;25.40;;;;;12.57;42.50;101555.66;1969841;28;3585590;-80
2023/04/06 01:50:47;;;;;;;;;25.80;21.80;;;;;12.58;42.58;101556.53;1957452;28;3585612;-80
2023/04/06 01:51:59;;;;;;;;;33.00;23.20;;;;;12.59;42.62;101550.38;1954747;28;3588083;-80
2023/04/06 01:53:10;;;;;;;;;9.67;7.00;;;;;12.60;42.31;101552.06;1936758;28;3489883;-80
2023/04/06 01:54:21;;;;;;;;;25.80;23.40;;;;;12.62;42.14;101552.06;1974023;28;3573157;-80
2023/04/06 01:55:33;;;;;;;;;26.40;24.00;;;;;12.61;42.69;101553.81;1978391;28;3585598;-80
2023/04/06 01:56:45;;;;;;;;;21.00;17.00;;;;;12.62;42.55;101544.97;1976506;28;3575236;-80
2023/04/06 01:57:56;;;;;;;;;16.00;14.00;;;;;12.64;42.90;101551.09;1966062;28;2813798;-80
2023/04/06 01:59:08;;;;;;;;;23.00;18.67;;;;;12.65;42.93;101546.66;1953290;28;3560618;-80
2023/04/06 02:00:20;;;;;;;;;21.00;20.33;;;;;12.66;43.42;101540.50;1974318;28;3563776;-80
2023/04/06 02:01:32;;;;;;;;;23.80;18.40;;;;;12.66;43.52;101546.63;1969679;28;3566899;-80
2023/04/06 02:02:44;;;;;;;;;29.60;23.00;;;;;12.67;44.02;101552.75;1981610;28;3601223;-80
2023/04/06 02:03:56;;;;;;;;;23.80;20.60;;;;;12.67;43.89;101547.47;1959100;28;3571091;-80
2023/04/06 02:05:08;;;;;;;;;18.33;17.33;;;;;12.67;43.75;101552.75;1973562;28;3560650;-80
2023/04/06 02:06:20;;;;;;;;;26.00;22.80;;;;;12.66;43.93;101553.69;1970203;28;3579722;-80
2023/04/06 02:07:32;;;;;;;;;25.33;20.67;;;;;12.67;43.81;101552.75;1964559;28;3567962;-80
2023/04/06 02:08:43;;;;;;;;;25.80;20.80;;;;;12.66;43.59;101548.41;1980929;28;3575186;-80
2023/04/06 02:09:56;;;;;;;;;29.40;22.00;;;;;12.66;43.47;101551.03;1979346;28;3589762;-80
2023/04/06 02:11:07;;;;;;;;;29.00;28.40;;;;;12.66;43.76;101558.97;1962447;28;3584650;-80
2023/04/06 02:12:19;;;;;;;;;31.60;20.80;;;;;12.64;43.55;101551.09;1983862;28;3596029;-80
2023/04/06 02:13:31;;;;;;;;;25.80;22.20;;;;;12.64;43.71;101556.38;1957961;28;3577308;-80
2023/04/06 02:14:43;;;;;;;;;28.60;22.00;;;;;12.63;43.95;101554.63;1980656;28;3576241;-80
2023/04/06 02:15:55;;;;;;;;;28.00;22.80;;;;;12.62;43.98;101555.53;1982068;28;3590810;-80
2023/04/06 02:17:07;;;;;;;;;27.67;23.67;;;;;12.62;43.37;101558.16;1979802;28;3580808;-80
2023/04/06 02:18:19;;;;;;;;;31.80;26.80;;;;;12.60;44.20;101558.22;1984760;28;3592912;-81
2023/04/06 02:19:31;;;;;;;;;29.20;25.40;;;;;12.61;43.81;101559.09;1943062;28;3592912;-80
2023/04/06 02:20:44;;;;;;;;;32.00;26.67;;;;;12.59;43.66;101548.56;1953384;28;3594039;-80
2023/04/06 02:21:54;;;;;;;;;27.00;27.00;;;;;12.59;43.79;101555.63;1944990;28;2848555;-80
2023/04/06 02:23:07;;;;;;;;;25.40;24.00;;;;;12.58;43.74;101556.53;1959769;28;3587731;-80
2023/04/06 02:24:17;;;;;;;;;31.50;24.50;;;;;12.56;43.57;101551.31;1962863;28;2854381;-80
2023/04/06 02:25:29;;;;;;;;;25.40;24.00;;;;;12.57;43.89;101550.38;1959244;28;3576240;-80
2023/04/06 02:26:41;;;;;;;;;30.33;25.00;;;;;12.58;43.70;101554.75;1975647;28;3596089;-80
2023/04/06 02:27:54;;;;;;;;;29.20;23.40;;;;;12.56;44.10;101546.03;1964694;28;3596089;-80
2023/04/06 02:29:06;;;;;;;;;26.33;22.33;;;;;12.58;44.13;101546.84;1942242;28;3566895;-80
2023/04/06 02:30:16;;;;;;;;;36.00;27.00;;;;;12.59;43.79;101539.81;1961115;28;2856515;-80
2023/04/06 02:31:28;;;;;;;;;30.33;24.33;;;;;12.58;43.82;101541.56;1954640;28;3586647;-81
2023/04/06 02:32:40;;;;;;;;;30.80;27.80;;;;;12.59;43.87;101548.56;1975348;28;3592937;-81
2023/04/06 02:33:52;;;;;;;;;23.80;21.80;;;;;12.59;43.83;101538.00;1959182;28;3562705;-80
2023/04/06 02:35:05;;;;;;;;;27.40;26.60;;;;;12.60;43.67;101538.88;1981181;28;3573882;-80
2023/04/06 02:36:16;;;;;;;;;29.00;25.00;;;;;12.60;43.90;101528.34;1946222;28;2854893;-80
2023/04/06 02:37:27;;;;;;;;;28.80;24.20;;;;;12.62;43.90;101536.22;1953896;28;3582516;-80
2023/04/06 02:38:39;;;;;;;;;29.60;24.60;;;;;12.59;43.87;101530.09;1957503;28;3591870;-80
2023/04/06 02:39:51;;;;;;;;;34.20;25.20;;;;;12.63;44.19;101535.28;1953687;28;3605404;-80
2023/04/06 02:41:03;;;;;;;;;26.40;22.40;;;;;12.62;43.91;101528.31;1958489;28;3575225;-80
2023/04/06 02:42:15;;;;;;;;;25.40;24.60;;;;;12.63;44.04;101532.66;1956949;28;3575189;-80
2023/04/06 02:43:27;;;;;;;;;30.40;25.60;;;;;12.63;44.39;101527.38;1953266;28;3591852;-80
2023/04/06 02:44:39;;;;;;;;;33.60;28.60;;;;;12.64;44.26;101518.56;1964834;28;3606944;-80
2023/04/06 02:45:51;;;;;;;;;29.00;27.00;;;;;12.63;44.23;101519.47;1963003;28;3592928;-80
2023/04/06 02:47:03;;;;;;;;;27.40;25.20;;;;;12.64;44.30;101515.94;1957027;28;3575233;-80
2023/04/06 02:48:15;;;;;;;;;28.40;23.20;;;;;12.64;44.21;101518.56;1958124;28;3591862;-80
2023/04/06 02:49:27;;;;;;;;;34.80;29.20;;;;;12.65;44.42;101512.38;1958254;28;3598132;-80
2023/04/06 02:50:39;;;;;;;;;29.00;25.40;;;;;12.65;44.25;101518.53;1958228;28;3584620;-80
2023/04/06 02:51:51;;;;;;;;;22.00;18.60;;;;;12.65;44.36;101509.75;1958871;28;3559574;-80
2023/04/06 02:53:03;;;;;;;;;26.80;24.80;;;;;12.64;44.60;101503.63;1980182;28;3574184;-80
2023/04/06 02:54:15;;;;;;;;;29.20;24.40;;;;;12.64;44.86;101510.66;1981934;28;3600256;-80
2023/04/06 02:55:27;;;;;;;;;23.60;19.80;;;;;12.63;45.25;101517.72;1959496;28;3565822;-80
2023/04/06 02:56:39;;;;;;;;;30.67;28.67;;;;;12.64;44.96;101513.31;1983970;28;3587741;-80
2023/04/06 02:57:51;;;;;;;;;27.00;25.80;;;;;12.62;44.86;101515.13;1977610;28;3581451;-80
2023/04/06 02:59:02;;;;;;;;;28.00;24.80;;;;;12.63;45.10;101516.84;1956254;28;3572081;-80
2023/04/06 03:00:15;;;;;;;;;28.40;23.20;;;;;12.62;45.15;101523.88;1981693;28;3583534;-80
2023/04/06 03:01:26;;;;;;;;;25.60;23.80;;;;;12.62;45.04;101520.41;1944056;28;3581442;-80
2023/04/06 03:02:38;;;;;;;;;29.80;25.00;;;;;12.62;45.10;101528.31;1958202;28;3576224;-80
2023/04/06 03:03:50;;;;;;;;;37.33;28.00;;;;;12.62;45.22;101530.94;1976916;28;3589830;-80
2023/04/06 03:05:03;;;;;;;;;34.20;27.40;;;;;12.60;45.19;101523.94;1956963;28;3601257;-80
2023/04/06 03:06:14;;;;;;;;;31.33;25.00;;;;;12.59;44.88;101526.63;1944320;28;3601297;-80
2023/04/06 03:07:26;;;;;;;;;24.33;20.33;;;;;12.60;44.98;101538.88;1952936;28;3574171;-80
2023/04/06 03:08:38;;;;;;;;;31.20;25.40;;;;;12.58;44.72;101541.56;1978670;28;3597071;-80
2023/04/06 03:09:50;;;;;;;;;26.80;25.20;;;;;12.58;44.70;101536.31;1958292;28;3578330;-80
2023/04/06 03:11:02;;;;;;;;;27.20;25.40;;;;;12.56;44.73;101527.56;1961079;28;3576637;-80
2023/04/06 03:12:14;;;;;;;;;34.00;28.40;;;;;12.56;44.66;101530.22;1963527;28;3592928;-80
2023/04/06 03:13:26;;;;;;;;;31.00;27.60;;;;;12.55;44.54;101533.75;1966360;28;3592905;-80
2023/04/06 03:14:38;;;;;;;;;32.00;27.67;;;;;12.55;44.58;101533.75;1963829;28;3589812;-80
2023/04/06 03:15:50;;;;;;;;;32.20;24.80;;;;;12.54;44.76;101534.66;1988958;28;3603350;-80
2023/04/06 03:17:02;;;;;;;;;28.60;23.60;;;;;12.55;44.84;101535.50;1962617;28;3580443;-80
2023/04/06 03:18:14;;;;;;;;;24.20;23.40;;;;;12.55;44.78;101533.75;1987632;28;3593966;-80
2023/04/06 03:19:26;;;;;;;;;30.20;23.00;;;;;12.54;44.63;101532.03;1958965;28;3582488;-80
2023/04/06 03:20:38;;;;;;;;;27.80;24.20;;;;;12.55;44.98;101527.59;1962636;28;3586676;-80
2023/04/06 03:21:50;;;;;;;;;35.80;27.00;;;;;12.56;44.80;101527.56;1956251;28;3604351;-80
2023/04/06 03:23:02;;;;;;;;;28.80;23.40;;;;;12.55;44.86;101525.84;1958148;28;3594336;-80
2023/04/06 03:24:14;;;;;;;;;36.00;29.80;;;;;12.56;44.92;101522.31;1964458;28;3597086;-80
2023/04/06 03:25:26;;;;;;;;;27.60;26.40;;;;;12.56;44.84;101518.78;1961340;28;3581459;-80
2023/04/06 03:26:37;;;;;;;;;28.20;27.20;;;;;12.57;45.15;101521.38;1961813;28;3582504;-80
2023/04/06 03:27:49;;;;;;;;;30.80;26.20;;;;;12.57;44.79;101509.97;1965458;28;3585609;-80
2023/04/06 03:29:01;;;;;;;;;26.00;25.00;;;;;12.57;44.88;101504.69;1964508;28;3586141;-80
2023/04/06 03:30:13;;;;;;;;;33.00;26.60;;;;;12.58;44.88;101509.94;1963894;28;3592928;-80
2023/04/06 03:31:26;;;;;;;;;28.40;27.80;;;;;12.58;44.73;101514.34;1961352;28;3579452;-80
2023/04/06 03:32:37;;;;;;;;;31.00;27.00;;;;;12.58;45.16;101509.94;1970250;28;2844343;-80
2023/04/06 03:33:49;;;;;;;;;33.00;25.00;;;;;12.58;44.93;101520.47;1960128;28;3599147;-80
2023/04/06 03:35:01;;;;;;;;;23.33;23.00;;;;;12.58;44.92;101515.22;1958025;28;3578806;-80
2023/04/06 03:36:13;;;;;;;;;25.80;25.80;;;;;12.59;45.22;101524.00;1988624;28;3584599;-80
2023/04/06 03:37:25;;;;;;;;;29.80;25.60;;;;;12.59;44.51;101522.19;1963324;28;3593023;-80
2023/04/06 03:38:37;;;;;;;;;28.00;25.40;;;;;12.59;45.12;101521.34;1953879;28;3578317;-80
2023/04/06 03:39:48;;;;;;;;;30.60;26.40;;;;;12.58;44.73;101517.84;1976151;28;3596054;-80
2023/04/06 03:41:00;;;;;;;;;29.60;24.00;;;;;12.59;44.83;101522.19;1966889;28;3582557;-80
2023/04/06 03:42:12;;;;;;;;;29.20;26.20;;;;;12.59;44.78;101511.66;1976624;28;3582497;-80
2023/04/06 03:43:24;;;;;;;;;32.60;25.40;;;;;12.58;44.89;101519.63;1952110;28;3593986;-80
2023/04/06 03:44:36;;;;;;;;;31.80;29.00;;;;;12.59;45.16;101524.81;1963167;28;3602282;-80
2023/04/06 03:45:48;;;;;;;;;35.20;26.60;;;;;12.60;44.79;101516.03;1964220;28;3604373;-80
2023/04/06 03:47:02;;;;;;;;;26.33;23.00;;;;;12.60;44.90;101520.44;1954860;28;3578361;-80
2023/04/06 03:48:12;;;;;;;;;26.50;20.00;;;;;12.61;44.70;101519.53;1963107;28;2840349;-80
2023/04/06 03:49:24;;;;;;;;;25.20;20.00;;;;;12.62;44.90;101512.50;1987067;28;3573221;-80
2023/04/06 03:50:36;;;;;;;;;28.40;24.20;;;;;12.62;44.69;101512.50;1988532;28;3588735;-80
2023/04/06 03:51:48;;;;;;;;;24.80;22.80;;;;;12.61;45.14;101506.34;1965453;28;3583538;-80
2023/04/06 03:53:02;;;;;;;;;27.67;24.00;;;;;12.62;44.93;101509.84;1959084;28;3589800;-80
2023/04/06 03:54:13;;;;;;;;;29.50;26.50;;;;;12.62;45.08;101507.22;1960763;28;2850280;-80
2023/04/06 03:55:25;;;;;;;;;29.40;24.80;;;;;12.62;44.98;101510.69;1956030;28;3596069;-80
2023/04/06 03:56:37;;;;;;;;;27.20;24.00;;;;;12.63;45.10;101511.56;1959056;28;3575216;-80
2023/04/06 03:57:49;;;;;;;;;24.80;23.80;;;;;12.63;45.18;101508.94;1990510;28;3591914;-80
2023/04/06 03:59:01;;;;;;;;;33.60;26.60;;;;;12.62;45.25;101504.56;1987943;28;3598139;-80
2023/04/06 04:00:12;;;;;;;;;30.50;25.50;;;;;12.63;44.87;101503.66;1947136;28;2846071;-80
2023/04/06 04:01:25;;;;;;;;;22.40;18.00;;;;;12.62;45.22;101507.22;1963625;28;2831489;-80
2023/04/06 04:02:37;;;;;;;;;32.60;29.00;;;;;12.61;45.27;101501.06;1962023;28;3598456;-80
2023/04/06 04:03:49;;;;;;;;;27.60;24.80;;;;;12.61;45.56;101498.44;1965407;28;3596025;-80
2023/04/06 04:05:01;;;;;;;;;26.00;21.00;;;;;12.62;45.21;101509.84;1947029;28;3587739;-80
2023/04/06 04:06:13;;;;;;;;;21.80;21.80;;;;;12.62;44.94;101509.84;1977861;28;3587732;-80
2023/04/06 04:07:25;;;;;;;;;26.00;23.00;;;;;12.59;45.08;101514.28;1957441;28;3583536;-80
2023/04/06 04:08:37;;;;;;;;;31.80;26.40;;;;;12.60;45.06;101515.16;1964391;28;3591862;-80
2023/04/06 04:09:48;;;;;;;;;32.20;26.00;;;;;12.60;45.61;101518.66;1964139;28;3588729;-80
2023/04/06 04:11:01;;;;;;;;;28.67;22.67;;;;;12.60;45.83;101513.38;1958610;28;3581479;-80
2023/04/06 04:12:14;;;;;;;;;34.20;25.40;;;;;12.59;45.50;101516.91;1956317;28;3600213;-80
2023/04/06 04:13:25;;;;;;;;;30.33;25.33;;;;;12.59;45.69;101513.44;1949534;28;2841936;-80
2023/04/06 04:14:36;;;;;;;;;27.00;24.50;;;;;12.58;45.83;101509.94;1970848;28;2852317;-80
2023/04/06 04:15:48;;;;;;;;;28.80;25.40;;;;;12.58;45.53;101514.34;1973634;28;3586699;-80
2023/04/06 04:17:00;;;;;;;;;26.40;22.60;;;;;12.58;45.72;101514.34;1963023;28;3582488;-80
2023/04/06 04:18:12;;;;;;;;;27.80;24.20;;;;;12.57;45.74;101515.22;1963281;28;3584927;-80
2023/04/06 04:19:24;;;;;;;;;23.33;20.33;;;;;12.58;46.06;101519.63;1984786;28;3573170;-80
2023/04/06 04:20:36;;;;;;;;;29.40;25.00;;;;;12.57;45.69;101509.97;1981890;28;3579387;-80
2023/04/06 04:21:47;;;;;;;;;29.80;26.60;;;;;12.57;45.66;101509.97;1964844;28;3579729;-80
2023/04/06 04:22:59;;;;;;;;;28.40;24.60;;;;;12.57;45.43;101504.69;1966050;28;3593998;-80
2023/04/06 04:24:12;;;;;;;;;33.80;30.20;;;;;12.55;45.28;101499.47;1964382;28;3597131;-80
2023/04/06 04:25:23;;;;;;;;;31.50;28.00;;;;;12.55;45.26;101504.75;1947370;28;2843002;-80
2023/04/06 04:26:35;;;;;;;;;26.80;26.20;;;;;12.55;45.19;101503.88;1942777;28;3576250;-80
2023/04/06 04:27:46;;;;;;;;;33.60;25.20;;;;;12.56;45.11;101500.34;1949091;28;3591894;-80
2023/04/06 04:28:59;;;;;;;;;32.80;28.00;;;;;12.55;45.12;101504.75;1966603;28;3591866;-80
2023/04/06 04:30:11;;;;;;;;;29.60;25.20;;;;;12.56;45.42;101510.88;1960729;28;3594339;-80
2023/04/06 04:31:23;;;;;;;;;34.80;28.00;;;;;12.56;45.74;101511.75;1957401;28;3601294;-80
2023/04/06 04:32:35;;;;;;;;;32.40;24.80;;;;;12.56;45.98;101501.22;1949716;28;3592014;-80
2023/04/06 04:33:46;;;;;;;;;25.20;22.60;;;;;12.56;46.05;101500.34;1946203;28;3596127;-80
2023/04/06 04:34:58;;;;;;;;;32.20;27.60;;;;;12.58;46.35;101503.78;1956948;28;3585700;-80
2023/04/06 04:36:10;;;;;;;;;28.40;22.80;;;;;12.57;46.46;101505.56;1961947;28;3584556;-80
2023/04/06 04:37:22;;;;;;;;;21.00;21.00;;;;;12.57;46.58;101505.56;1978268;28;3587704;-80
2023/04/06 04:38:34;;;;;;;;;33.33;28.00;;;;;12.57;46.92;101513.47;1954756;28;3592975;-80
2023/04/06 04:39:46;;;;;;;;;29.00;25.40;;;;;12.57;46.97;101513.47;1964103;28;3586690;-80
2023/04/06 04:40:58;;;;;;;;;20.00;17.67;;;;;12.57;46.98;101504.69;1961364;28;2820124;-80
2023/04/06 04:42:09;;;;;;;;;31.50;30.50;;;;;12.57;46.56;101507.31;1966684;28;2844019;-80
2023/04/06 04:43:20;;;;;;;;;28.20;25.60;;;;;12.56;46.59;101511.75;1960797;28;3588738;-80
2023/04/06 04:44:32;;;;;;;;;29.00;25.00;;;;;12.55;46.68;101499.47;1978654;28;3585645;-80
2023/04/06 04:45:45;;;;;;;;;31.20;25.00;;;;;12.56;46.22;101511.75;1963886;28;3599169;-80
2023/04/06 04:46:56;;;;;;;;;28.60;26.80;;;;;12.56;46.38;101505.59;1956979;28;3580492;-80
2023/04/06 04:48:09;;;;;;;;;26.00;22.00;;;;;12.55;46.43;101507.38;1981082;28;3568982;-80
2023/04/06 04:49:20;;;;;;;;;31.00;28.00;;;;;12.55;46.56;101504.75;1968020;28;3601294;-80
2023/04/06 04:50:32;;;;;;;;;28.67;21.33;;;;;12.57;46.65;101509.97;1956539;28;3599259;-80
2023/04/06 04:51:44;;;;;;;;;25.20;23.00;;;;;12.56;46.42;101508.25;1959829;28;3584580;-80
2023/04/06 04:52:56;;;;;;;;;31.00;24.80;;;;;12.55;46.65;101510.00;1988032;28;3599238;-80
2023/04/06 04:54:08;;;;;;;;;30.40;27.60;;;;;12.54;46.53;101513.56;1963269;28;3604367;-80
2023/04/06 04:55:20;;;;;;;;;28.00;24.40;;;;;12.55;46.60;101510.00;1963786;28;3585612;-80
2023/04/06 04:56:32;;;;;;;;;27.20;24.60;;;;;12.54;46.69;101510.06;1963274;28;3582047;-80
2023/04/06 04:57:44;;;;;;;;;32.60;28.60;;;;;12.53;46.55;101511.84;1959432;28;3590853;-80
2023/04/06 04:58:56;;;;;;;;;28.00;24.00;;;;;12.52;46.69;101515.38;1962222;28;3581499;-80
2023/04/06 05:00:08;;;;;;;;;26.20;24.20;;;;;12.53;46.80;101521.50;1987415;28;3584560;-80
2023/04/06 05:01:19;;;;;;;;;28.00;24.00;;;;;12.52;46.99;101523.28;1962355;28;2847483;-80
2023/04/06 05:02:31;;;;;;;;;29.40;24.00;;;;;12.53;47.21;101529.44;1958232;28;3606453;-80
2023/04/06 05:03:43;;;;;;;;;24.80;22.80;;;;;12.52;47.29;101533.81;1965627;28;3588777;-80
2023/04/06 05:04:55;;;;;;;;;34.00;25.00;;;;;12.51;46.87;101526.84;1986719;28;3599174;-80
2023/04/06 05:06:07;;;;;;;;;31.80;23.60;;;;;12.52;46.78;101535.63;1960929;28;3595023;-80
2023/04/06 05:07:20;;;;;;;;;32.80;28.80;;;;;12.51;46.75;101534.75;1961359;28;3587677;-80
2023/04/06 05:08:31;;;;;;;;;28.50;26.50;;;;;12.52;46.68;101535.63;1946988;28;2845010;-80
2023/04/06 05:09:43;;;;;;;;;28.00;26.00;;;;;12.50;46.28;101533.00;1948118;28;3574210;-80
2023/04/06 05:10:55;;;;;;;;;33.33;29.67;;;;;12.49;46.37;101526.88;1958740;28;3595037;-80
2023/04/06 05:12:07;;;;;;;;;29.00;23.80;;;;;12.51;46.42;101531.25;1959357;28;3596083;-80
2023/04/06 05:13:19;;;;;;;;;29.00;24.00;;;;;12.50;46.34;101522.47;1941316;28;3576282;-80
2023/04/06 05:14:30;;;;;;;;;24.67;23.33;;;;;12.49;46.27;101526.88;1959323;28;3581986;-80
2023/04/06 05:15:42;;;;;;;;;30.20;26.40;;;;;12.50;46.32;101522.47;1967606;28;3579412;-80
2023/04/06 05:16:54;;;;;;;;;33.80;26.20;;;;;12.50;46.51;101530.38;1957472;28;3598235;-80
2023/04/06 05:18:07;;;;;;;;;26.33;24.67;;;;;12.51;46.76;101531.25;1963184;28;3578376;-80
2023/04/06 05:19:18;;;;;;;;;37.00;30.50;;;;;12.51;46.24;101532.13;1969206;28;2856503;-80